sensor_id;sensor_type;location;lat;lon;timestamp;temperature;humidity
41435;DHT22;27177;22.262;114.192;2023-06-14T00:02:20;25.10;99.90
41435;DHT22;27177;22.262;114.192;2023-06-14T00:15:14;25.20;99.90
41435;DHT22;27177;22.262;114.192;2023-06-14T00:20:16;25.30;99.90
41435;DHT22;27177;22.262;114.192;2023-06-14T00:22:43;25.30;99.90
41435;DHT22;27177;22.262;114.192;2023-06-14T00:25:21;25.30;99.90
41435;DHT22;27177;22.262;114.192;2023-06-14T00:45:32;25.60;99.90
41435;DHT22;27177;22.262;114.192;2023-06-14T00:48:02;25.70;99.90
41435;DHT22;27177;22.262;114.192;2023-06-14T00:50:30;25.70;99.90
41435;DHT22;27177;22.262;114.192;2023-06-14T00:55:34;25.70;99.90
41435;DHT22;27177;22.262;114.192;2023-06-14T00:58:01;25.70;99.90
41435;DHT22;27177;22.262;114.192;2023-06-14T01:03:03;25.70;99.90
41435;DHT22;27177;22.262;114.192;2023-06-14T01:05:31;25.70;99.90
41435;DHT22;27177;22.262;114.192;2023-06-14T01:08:23;25.70;99.90
41435;DHT22;27177;22.262;114.192;2023-06-14T01:11:05;25.70;99.90
41435;DHT22;27177;22.262;114.192;2023-06-14T01:13:38;25.80;99.90
41435;DHT22;27177;22.262;114.192;2023-06-14T01:30:31;25.80;99.90
41435;DHT22;27177;22.262;114.192;2023-06-14T01:35:37;25.90;99.90
41435;DHT22;27177;22.262;114.192;2023-06-14T01:43:15;26.00;99.90
41435;DHT22;27177;22.262;114.192;2023-06-14T01:45:43;26.00;99.90
41435;DHT22;27177;22.262;114.192;2023-06-14T01:53:20;26.20;99.90
41435;DHT22;27177;22.262;114.192;2023-06-14T02:13:48;27.60;99.90
41435;DHT22;27177;22.262;114.192;2023-06-14T02:16:15;27.60;99.90
41435;DHT22;27177;22.262;114.192;2023-06-14T02:21:47;27.70;99.90
41435;DHT22;27177;22.262;114.192;2023-06-14T02:24:14;27.80;99.90
41435;DHT22;27177;22.262;114.192;2023-06-14T02:26:41;27.90;99.90
41435;DHT22;27177;22.262;114.192;2023-06-14T02:29:08;28.00;99.90
41435;DHT22;27177;22.262;114.192;2023-06-14T02:31:37;28.10;99.90
41435;DHT22;27177;22.262;114.192;2023-06-14T02:34:04;28.30;99.90
41435;DHT22;27177;22.262;114.192;2023-06-14T02:36:31;28.50;99.90
41435;DHT22;27177;22.262;114.192;2023-06-14T02:38:58;28.70;99.90
41435;DHT22;27177;22.262;114.192;2023-06-14T02:47:51;28.80;99.90
41435;DHT22;27177;22.262;114.192;2023-06-14T02:55:28;29.00;99.90
41435;DHT22;27177;22.262;114.192;2023-06-14T02:57:55;29.00;99.90
41435;DHT22;27177;22.262;114.192;2023-06-14T03:02:57;29.10;99.90
41435;DHT22;27177;22.262;114.192;2023-06-14T03:08:05;28.90;99.90
41435;DHT22;27177;22.262;114.192;2023-06-14T03:10:32;29.00;99.90
41435;DHT22;27177;22.262;114.192;2023-06-14T03:12:58;29.00;99.90
41435;DHT22;27177;22.262;114.192;2023-06-14T03:15:27;29.00;99.90
41435;DHT22;27177;22.262;114.192;2023-06-14T03:17:54;29.10;99.90
41435;DHT22;27177;22.262;114.192;2023-06-14T03:20:21;29.10;99.90
41435;DHT22;27177;22.262;114.192;2023-06-14T03:22:48;29.20;99.90
41435;DHT22;27177;22.262;114.192;2023-06-14T03:25:15;29.20;99.90
41435;DHT22;27177;22.262;114.192;2023-06-14T03:27:42;29.20;99.90
41435;DHT22;27177;22.262;114.192;2023-06-14T03:30:09;29.20;99.90
41435;DHT22;27177;22.262;114.192;2023-06-14T03:32:36;29.20;99.90
41435;DHT22;27177;22.262;114.192;2023-06-14T03:35:03;29.20;99.90
41435;DHT22;27177;22.262;114.192;2023-06-14T03:37:31;29.10;99.90
41435;DHT22;27177;22.262;114.192;2023-06-14T03:39:57;29.10;99.90
41435;DHT22;27177;22.262;114.192;2023-06-14T03:42:24;29.20;99.90
41435;DHT22;27177;22.262;114.192;2023-06-14T03:44:51;29.10;99.90
41435;DHT22;27177;22.262;114.192;2023-06-14T03:47:18;29.20;99.90
41435;DHT22;27177;22.262;114.192;2023-06-14T03:49:44;29.30;99.90
41435;DHT22;27177;22.262;114.192;2023-06-14T03:52:11;29.30;99.90
41435;DHT22;27177;22.262;114.192;2023-06-14T03:54:40;29.40;99.90
41435;DHT22;27177;22.262;114.192;2023-06-14T03:57:07;29.40;99.90
41435;DHT22;27177;22.262;114.192;2023-06-14T03:59:34;29.40;99.90
41435;DHT22;27177;22.262;114.192;2023-06-14T04:02:01;29.40;99.90
41435;DHT22;27177;22.262;114.192;2023-06-14T04:04:28;29.40;99.90
41435;DHT22;27177;22.262;114.192;2023-06-14T04:06:58;29.50;99.90
41435;DHT22;27177;22.262;114.192;2023-06-14T04:09:26;29.30;99.90
41435;DHT22;27177;22.262;114.192;2023-06-14T04:11:53;29.40;99.90
41435;DHT22;27177;22.262;114.192;2023-06-14T04:14:20;29.40;99.90
41435;DHT22;27177;22.262;114.192;2023-06-14T04:16:48;29.40;99.90
41435;DHT22;27177;22.262;114.192;2023-06-14T04:19:16;29.50;99.90
41435;DHT22;27177;22.262;114.192;2023-06-14T04:21:42;29.60;99.90
41435;DHT22;27177;22.262;114.192;2023-06-14T04:24:09;29.60;99.90
41435;DHT22;27177;22.262;114.192;2023-06-14T04:26:43;29.60;99.90
41435;DHT22;27177;22.262;114.192;2023-06-14T04:29:16;29.80;99.90
41435;DHT22;27177;22.262;114.192;2023-06-14T04:31:46;29.70;99.90
41435;DHT22;27177;22.262;114.192;2023-06-14T04:34:13;29.60;99.90
41435;DHT22;27177;22.262;114.192;2023-06-14T04:36:42;29.50;99.90
41435;DHT22;27177;22.262;114.192;2023-06-14T04:39:17;29.30;99.90
41435;DHT22;27177;22.262;114.192;2023-06-14T04:41:44;29.20;99.90
41435;DHT22;27177;22.262;114.192;2023-06-14T04:44:11;29.10;99.90
41435;DHT22;27177;22.262;114.192;2023-06-14T04:46:39;29.20;99.90
41435;DHT22;27177;22.262;114.192;2023-06-14T04:49:15;29.20;99.90
41435;DHT22;27177;22.262;114.192;2023-06-14T04:51:44;29.20;99.90
41435;DHT22;27177;22.262;114.192;2023-06-14T04:54:11;29.20;99.90
41435;DHT22;27177;22.262;114.192;2023-06-14T05:42:29;28.80;99.90
41435;DHT22;27177;22.262;114.192;2023-06-14T06:31:26;27.40;99.90
41435;DHT22;27177;22.262;114.192;2023-06-14T06:33:54;27.30;99.90
41435;DHT22;27177;22.262;114.192;2023-06-14T06:36:21;27.20;99.90
41435;DHT22;27177;22.262;114.192;2023-06-14T06:49:09;27.40;99.90
41435;DHT22;27177;22.262;114.192;2023-06-14T06:52:05;27.30;99.90
41435;DHT22;27177;22.262;114.192;2023-06-14T07:12:36;27.00;99.90
41435;DHT22;27177;22.262;114.192;2023-06-14T07:15:06;27.10;99.90
41435;DHT22;27177;22.262;114.192;2023-06-14T07:17:35;27.30;99.90
41435;DHT22;27177;22.262;114.192;2023-06-14T07:20:03;27.60;99.90
41435;DHT22;27177;22.262;114.192;2023-06-14T07:22:40;27.80;99.90
41435;DHT22;27177;22.262;114.192;2023-06-14T07:25:09;27.90;99.90
41435;DHT22;27177;22.262;114.192;2023-06-14T07:27:38;28.10;99.90
41435;DHT22;27177;22.262;114.192;2023-06-14T07:30:05;28.10;99.90
41435;DHT22;27177;22.262;114.192;2023-06-14T07:32:32;28.00;99.90
41435;DHT22;27177;22.262;114.192;2023-06-14T07:34:59;28.00;99.90
41435;DHT22;27177;22.262;114.192;2023-06-14T07:37:26;28.00;99.90
41435;DHT22;27177;22.262;114.192;2023-06-14T07:39:53;28.10;99.90
41435;DHT22;27177;22.262;114.192;2023-06-14T07:42:21;28.20;99.90
41435;DHT22;27177;22.262;114.192;2023-06-14T07:49:58;28.50;99.90
41435;DHT22;27177;22.262;114.192;2023-06-14T07:52:25;28.50;99.90
41435;DHT22;27177;22.262;114.192;2023-06-14T07:54:52;28.60;99.90
41435;DHT22;27177;22.262;114.192;2023-06-14T07:57:18;28.60;99.90
41435;DHT22;27177;22.262;114.192;2023-06-14T08:23:28;28.40;99.90
41435;DHT22;27177;22.262;114.192;2023-06-14T08:28:30;28.30;99.90
41435;DHT22;27177;22.262;114.192;2023-06-14T08:36:01;28.20;99.90
41435;DHT22;27177;22.262;114.192;2023-06-14T08:43:36;28.30;99.90
41435;DHT22;27177;22.262;114.192;2023-06-14T08:53:54;28.20;99.90
41435;DHT22;27177;22.262;114.192;2023-06-14T09:05:00;28.00;99.90
41435;DHT22;27177;22.262;114.192;2023-06-14T09:07:26;28.00;99.90
41435;DHT22;27177;22.262;114.192;2023-06-14T09:15:07;27.90;99.90
41435;DHT22;27177;22.262;114.192;2023-06-14T09:17:36;28.00;99.90
41435;DHT22;27177;22.262;114.192;2023-06-14T09:25:13;28.00;99.90
41435;DHT22;27177;22.262;114.192;2023-06-14T09:27:46;28.00;99.90
41435;DHT22;27177;22.262;114.192;2023-06-14T09:30:13;27.90;99.90
41435;DHT22;27177;22.262;114.192;2023-06-14T09:32:40;28.00;99.90
41435;DHT22;27177;22.262;114.192;2023-06-14T09:35:08;28.00;99.90
41435;DHT22;27177;22.262;114.192;2023-06-14T09:40:47;28.00;99.90
41435;DHT22;27177;22.262;114.192;2023-06-14T09:45:49;28.30;99.90
41435;DHT22;27177;22.262;114.192;2023-06-14T09:48:16;28.50;99.90
41435;DHT22;27177;22.262;114.192;2023-06-14T09:53:21;29.10;99.90
41435;DHT22;27177;22.262;114.192;2023-06-14T09:55:52;29.20;99.90
41435;DHT22;27177;22.262;114.192;2023-06-14T10:03:32;29.10;99.90
41435;DHT22;27177;22.262;114.192;2023-06-14T10:06:02;29.10;99.90
41435;DHT22;27177;22.262;114.192;2023-06-14T10:08:31;29.00;99.90
41435;DHT22;27177;22.262;114.192;2023-06-14T10:13:35;28.90;99.90
41435;DHT22;27177;22.262;114.192;2023-06-14T10:16:15;28.70;99.90
41435;DHT22;27177;22.262;114.192;2023-06-14T11:07:45;27.20;99.90
41435;DHT22;27177;22.262;114.192;2023-06-14T11:17:53;27.10;99.90
41435;DHT22;27177;22.262;114.192;2023-06-14T11:25:28;26.90;99.90
41435;DHT22;27177;22.262;114.192;2023-06-14T11:27:56;26.90;99.90
41435;DHT22;27177;22.262;114.192;2023-06-14T11:30:23;26.80;99.90
41435;DHT22;27177;22.262;114.192;2023-06-14T11:32:53;26.80;99.90
41435;DHT22;27177;22.262;114.192;2023-06-14T11:40:24;26.80;99.90
41435;DHT22;27177;22.262;114.192;2023-06-14T11:42:59;26.70;99.90
41435;DHT22;27177;22.262;114.192;2023-06-14T11:45:27;26.70;99.90
41435;DHT22;27177;22.262;114.192;2023-06-14T11:53:06;26.70;99.90
41435;DHT22;27177;22.262;114.192;2023-06-14T11:58:11;26.70;99.90
41435;DHT22;27177;22.262;114.192;2023-06-14T12:03:26;26.60;99.90
41435;DHT22;27177;22.262;114.192;2023-06-14T12:21:48;26.60;99.90
41435;DHT22;27177;22.262;114.192;2023-06-14T12:29:26;26.60;99.90
41435;DHT22;27177;22.262;114.192;2023-06-14T12:31:54;26.60;99.90
41435;DHT22;27177;22.262;114.192;2023-06-14T12:34:26;26.60;99.90
41435;DHT22;27177;22.262;114.192;2023-06-14T12:42:02;26.60;99.90
41435;DHT22;27177;22.262;114.192;2023-06-14T12:44:30;26.60;99.90
41435;DHT22;27177;22.262;114.192;2023-06-14T12:46:59;26.70;99.90
41435;DHT22;27177;22.262;114.192;2023-06-14T12:49:26;26.70;99.90
41435;DHT22;27177;22.262;114.192;2023-06-14T12:54:28;26.80;99.90
41435;DHT22;27177;22.262;114.192;2023-06-14T12:56:55;26.80;99.90
41435;DHT22;27177;22.262;114.192;2023-06-14T12:59:22;26.80;99.90
41435;DHT22;27177;22.262;114.192;2023-06-14T13:04:25;26.80;99.90
41435;DHT22;27177;22.262;114.192;2023-06-14T13:06:51;26.80;99.90
41435;DHT22;27177;22.262;114.192;2023-06-14T13:09:18;26.80;99.90
41435;DHT22;27177;22.262;114.192;2023-06-14T13:16:51;26.80;99.90
41435;DHT22;27177;22.262;114.192;2023-06-14T13:19:18;26.90;99.90
41435;DHT22;27177;22.262;114.192;2023-06-14T13:24:21;26.80;99.90
41435;DHT22;27177;22.262;114.192;2023-06-14T13:26:48;26.80;99.90
41435;DHT22;27177;22.262;114.192;2023-06-14T13:36:58;26.80;99.90
41435;DHT22;27177;22.262;114.192;2023-06-14T13:39:40;26.80;99.90
41435;DHT22;27177;22.262;114.192;2023-06-14T13:42:07;26.80;99.90
41435;DHT22;27177;22.262;114.192;2023-06-14T13:44:34;26.80;99.90
41435;DHT22;27177;22.262;114.192;2023-06-14T13:47:01;26.80;99.90
41435;DHT22;27177;22.262;114.192;2023-06-14T13:49:27;26.80;99.90
41435;DHT22;27177;22.262;114.192;2023-06-14T13:51:54;26.80;99.90
41435;DHT22;27177;22.262;114.192;2023-06-14T13:54:21;26.80;99.90
41435;DHT22;27177;22.262;114.192;2023-06-14T13:56:48;26.80;99.90
41435;DHT22;27177;22.262;114.192;2023-06-14T13:59:15;26.80;99.90
41435;DHT22;27177;22.262;114.192;2023-06-14T14:04:10;26.80;99.90
41435;DHT22;27177;22.262;114.192;2023-06-14T14:06:38;26.80;99.90
41435;DHT22;27177;22.262;114.192;2023-06-14T14:09:05;26.80;99.90
41435;DHT22;27177;22.262;114.192;2023-06-14T14:11:33;26.80;99.90
41435;DHT22;27177;22.262;114.192;2023-06-14T14:14:00;26.80;99.90
41435;DHT22;27177;22.262;114.192;2023-06-14T14:16:27;26.80;99.90
41435;DHT22;27177;22.262;114.192;2023-06-14T14:18:54;26.80;99.90
41435;DHT22;27177;22.262;114.192;2023-06-14T14:21:21;26.80;99.90
41435;DHT22;27177;22.262;114.192;2023-06-14T14:23:48;26.70;99.90
41435;DHT22;27177;22.262;114.192;2023-06-14T14:26:16;26.70;99.90
41435;DHT22;27177;22.262;114.192;2023-06-14T14:28:42;26.70;99.90
41435;DHT22;27177;22.262;114.192;2023-06-14T14:31:09;26.70;99.90
41435;DHT22;27177;22.262;114.192;2023-06-14T14:33:36;26.70;99.90
41435;DHT22;27177;22.262;114.192;2023-06-14T14:41:08;26.80;99.90
41435;DHT22;27177;22.262;114.192;2023-06-14T14:43:35;26.80;99.90
41435;DHT22;27177;22.262;114.192;2023-06-14T14:46:02;26.80;99.90
41435;DHT22;27177;22.262;114.192;2023-06-14T14:48:30;26.80;99.90
41435;DHT22;27177;22.262;114.192;2023-06-14T14:50:57;26.80;99.90
41435;DHT22;27177;22.262;114.192;2023-06-14T14:53:24;26.80;99.90
41435;DHT22;27177;22.262;114.192;2023-06-14T14:58:26;26.80;99.90
41435;DHT22;27177;22.262;114.192;2023-06-14T15:00:53;26.80;99.90
41435;DHT22;27177;22.262;114.192;2023-06-14T15:03:19;26.80;99.90
41435;DHT22;27177;22.262;114.192;2023-06-14T15:05:47;26.80;99.90
41435;DHT22;27177;22.262;114.192;2023-06-14T15:08:14;26.80;99.90
41435;DHT22;27177;22.262;114.192;2023-06-14T15:10:40;26.80;99.90
41435;DHT22;27177;22.262;114.192;2023-06-14T15:13:08;26.80;99.90
41435;DHT22;27177;22.262;114.192;2023-06-14T15:18:10;26.80;99.90
41435;DHT22;27177;22.262;114.192;2023-06-14T15:20:46;26.80;99.90
41435;DHT22;27177;22.262;114.192;2023-06-14T15:23:14;26.80;99.90
41435;DHT22;27177;22.262;114.192;2023-06-14T15:25:46;26.80;99.90
41435;DHT22;27177;22.262;114.192;2023-06-14T15:28:18;26.80;99.90
41435;DHT22;27177;22.262;114.192;2023-06-14T15:30:45;26.70;99.90
41435;DHT22;27177;22.262;114.192;2023-06-14T15:33:12;26.70;99.90
41435;DHT22;27177;22.262;114.192;2023-06-14T15:35:39;26.70;99.90
41435;DHT22;27177;22.262;114.192;2023-06-14T15:38:07;26.70;99.90
41435;DHT22;27177;22.262;114.192;2023-06-14T15:43:09;26.70;99.90
41435;DHT22;27177;22.262;114.192;2023-06-14T15:50:46;26.70;99.90
41435;DHT22;27177;22.262;114.192;2023-06-14T15:53:13;26.70;99.90
41435;DHT22;27177;22.262;114.192;2023-06-14T15:55:40;26.70;99.90
41435;DHT22;27177;22.262;114.192;2023-06-14T15:58:07;26.70;99.90
41435;DHT22;27177;22.262;114.192;2023-06-14T16:03:23;26.80;99.90
41435;DHT22;27177;22.262;114.192;2023-06-14T16:16:11;26.70;99.90
41435;DHT22;27177;22.262;114.192;2023-06-14T16:18:38;26.70;99.90
41435;DHT22;27177;22.262;114.192;2023-06-14T16:30:42;26.70;99.90
41435;DHT22;27177;22.262;114.192;2023-06-14T16:33:10;26.70;99.90
41435;DHT22;27177;22.262;114.192;2023-06-14T16:35:37;26.70;99.90
41435;DHT22;27177;22.262;114.192;2023-06-14T16:38:06;26.70;99.90
41435;DHT22;27177;22.262;114.192;2023-06-14T16:40:33;26.70;99.90
41435;DHT22;27177;22.262;114.192;2023-06-14T16:43:00;26.70;99.90
41435;DHT22;27177;22.262;114.192;2023-06-14T16:45:26;26.70;99.90
41435;DHT22;27177;22.262;114.192;2023-06-14T16:47:53;26.70;99.90
41435;DHT22;27177;22.262;114.192;2023-06-14T16:52:55;26.70;99.90
41435;DHT22;27177;22.262;114.192;2023-06-14T17:00:37;26.70;99.90
41435;DHT22;27177;22.262;114.192;2023-06-14T17:05:40;26.70;99.90
41435;DHT22;27177;22.262;114.192;2023-06-14T17:08:19;26.60;99.90
41435;DHT22;27177;22.262;114.192;2023-06-14T17:10:46;26.60;99.90
41435;DHT22;27177;22.262;114.192;2023-06-14T17:13:13;26.60;99.90
41435;DHT22;27177;22.262;114.192;2023-06-14T17:15:40;26.60;99.90
41435;DHT22;27177;22.262;114.192;2023-06-14T17:18:07;26.70;99.90
41435;DHT22;27177;22.262;114.192;2023-06-14T17:28:20;26.70;99.90
41435;DHT22;27177;22.262;114.192;2023-06-14T17:30:47;26.70;99.90
41435;DHT22;27177;22.262;114.192;2023-06-14T17:33:14;26.60;99.90
41435;DHT22;27177;22.262;114.192;2023-06-14T17:35:43;26.60;99.90
41435;DHT22;27177;22.262;114.192;2023-06-14T17:38:10;26.60;99.90
41435;DHT22;27177;22.262;114.192;2023-06-14T17:40:37;26.60;99.90
41435;DHT22;27177;22.262;114.192;2023-06-14T17:43:04;26.50;99.90
41435;DHT22;27177;22.262;114.192;2023-06-14T17:45:31;26.50;99.90
41435;DHT22;27177;22.262;114.192;2023-06-14T17:47:57;26.50;99.90
41435;DHT22;27177;22.262;114.192;2023-06-14T17:50:29;26.50;99.90
41435;DHT22;27177;22.262;114.192;2023-06-14T17:52:55;26.40;99.90
41435;DHT22;27177;22.262;114.192;2023-06-14T17:57:58;26.10;99.90
41435;DHT22;27177;22.262;114.192;2023-06-14T18:00:25;26.00;99.90
41435;DHT22;27177;22.262;114.192;2023-06-14T18:02:51;25.90;99.90
41435;DHT22;27177;22.262;114.192;2023-06-14T18:05:18;25.90;99.90
41435;DHT22;27177;22.262;114.192;2023-06-14T18:07:45;25.90;99.90
41435;DHT22;27177;22.262;114.192;2023-06-14T18:10:12;25.90;99.90
41435;DHT22;27177;22.262;114.192;2023-06-14T18:12:41;25.90;99.90
41435;DHT22;27177;22.262;114.192;2023-06-14T18:15:08;25.90;99.90
41435;DHT22;27177;22.262;114.192;2023-06-14T18:17:36;25.90;99.90
41435;DHT22;27177;22.262;114.192;2023-06-14T18:20:04;25.90;99.90
41435;DHT22;27177;22.262;114.192;2023-06-14T18:22:31;25.90;99.90
41435;DHT22;27177;22.262;114.192;2023-06-14T18:24:58;25.80;99.90
41435;DHT22;27177;22.262;114.192;2023-06-14T18:27:25;25.80;99.90
41435;DHT22;27177;22.262;114.192;2023-06-14T18:32:20;25.80;99.90
41435;DHT22;27177;22.262;114.192;2023-06-14T18:34:47;25.70;99.90
41435;DHT22;27177;22.262;114.192;2023-06-14T18:37:15;25.80;99.90
41435;DHT22;27177;22.262;114.192;2023-06-14T18:39:42;25.70;99.90
41435;DHT22;27177;22.262;114.192;2023-06-14T18:42:09;25.70;99.90
41435;DHT22;27177;22.262;114.192;2023-06-14T18:44:37;25.70;99.90
41435;DHT22;27177;22.262;114.192;2023-06-14T18:47:04;25.70;99.90
41435;DHT22;27177;22.262;114.192;2023-06-14T18:49:31;25.60;99.90
41435;DHT22;27177;22.262;114.192;2023-06-14T19:02:26;25.60;99.90
41435;DHT22;27177;22.262;114.192;2023-06-14T19:04:52;25.60;99.90
41435;DHT22;27177;22.262;114.192;2023-06-14T19:07:19;25.60;99.90
41435;DHT22;27177;22.262;114.192;2023-06-14T19:09:46;25.60;99.90
41435;DHT22;27177;22.262;114.192;2023-06-14T19:14:48;25.50;99.90
41435;DHT22;27177;22.262;114.192;2023-06-14T19:17:15;25.50;99.90
41435;DHT22;27177;22.262;114.192;2023-06-14T19:19:41;25.50;99.90
41435;DHT22;27177;22.262;114.192;2023-06-14T19:22:10;25.60;99.90
41435;DHT22;27177;22.262;114.192;2023-06-14T19:24:37;25.50;99.90
41435;DHT22;27177;22.262;114.192;2023-06-14T19:27:04;25.60;99.90
41435;DHT22;27177;22.262;114.192;2023-06-14T19:29:31;25.60;99.90
41435;DHT22;27177;22.262;114.192;2023-06-14T19:32:01;25.60;99.90
41435;DHT22;27177;22.262;114.192;2023-06-14T19:34:29;25.50;99.90
41435;DHT22;27177;22.262;114.192;2023-06-14T19:36:55;25.50;99.90
41435;DHT22;27177;22.262;114.192;2023-06-14T19:39:22;25.50;99.90
41435;DHT22;27177;22.262;114.192;2023-06-14T19:41:49;25.50;99.90
41435;DHT22;27177;22.262;114.192;2023-06-14T19:44:16;25.50;99.90
41435;DHT22;27177;22.262;114.192;2023-06-14T19:46:43;25.50;99.90
41435;DHT22;27177;22.262;114.192;2023-06-14T19:49:10;25.50;99.90
41435;DHT22;27177;22.262;114.192;2023-06-14T19:51:37;25.50;99.90
41435;DHT22;27177;22.262;114.192;2023-06-14T19:54:03;25.40;99.90
41435;DHT22;27177;22.262;114.192;2023-06-14T19:56:30;25.40;99.90
41435;DHT22;27177;22.262;114.192;2023-06-14T19:58:57;25.40;99.90
41435;DHT22;27177;22.262;114.192;2023-06-14T20:01:23;25.40;99.90
41435;DHT22;27177;22.262;114.192;2023-06-14T20:03:50;25.40;99.90
41435;DHT22;27177;22.262;114.192;2023-06-14T20:06:17;25.30;99.90
41435;DHT22;27177;22.262;114.192;2023-06-14T20:08:45;25.30;99.90
41435;DHT22;27177;22.262;114.192;2023-06-14T20:11:13;25.30;99.90
41435;DHT22;27177;22.262;114.192;2023-06-14T20:13:41;25.40;99.90
41435;DHT22;27177;22.262;114.192;2023-06-14T20:16:08;25.40;99.90
41435;DHT22;27177;22.262;114.192;2023-06-14T20:18:35;25.40;99.90
41435;DHT22;27177;22.262;114.192;2023-06-14T20:21:02;25.50;99.90
41435;DHT22;27177;22.262;114.192;2023-06-14T20:23:29;25.40;99.90
41435;DHT22;27177;22.262;114.192;2023-06-14T20:25:56;25.40;99.90
41435;DHT22;27177;22.262;114.192;2023-06-14T20:28:23;25.40;99.90
41435;DHT22;27177;22.262;114.192;2023-06-14T20:30:50;25.40;99.90
41435;DHT22;27177;22.262;114.192;2023-06-14T20:33:16;25.40;99.90
41435;DHT22;27177;22.262;114.192;2023-06-14T20:35:43;25.40;99.90
41435;DHT22;27177;22.262;114.192;2023-06-14T20:38:10;25.40;99.90
41435;DHT22;27177;22.262;114.192;2023-06-14T20:40:36;25.40;99.90
41435;DHT22;27177;22.262;114.192;2023-06-14T20:43:03;25.40;99.90
41435;DHT22;27177;22.262;114.192;2023-06-14T20:45:32;25.40;99.90
41435;DHT22;27177;22.262;114.192;2023-06-14T20:47:59;25.50;99.90
41435;DHT22;27177;22.262;114.192;2023-06-14T20:50:26;25.60;99.90
41435;DHT22;27177;22.262;114.192;2023-06-14T20:52:52;25.60;99.90
41435;DHT22;27177;22.262;114.192;2023-06-14T20:55:19;25.60;99.90
41435;DHT22;27177;22.262;114.192;2023-06-14T20:57:46;25.60;99.90
41435;DHT22;27177;22.262;114.192;2023-06-14T21:00:13;25.60;99.90
41435;DHT22;27177;22.262;114.192;2023-06-14T21:02:40;25.60;99.90
41435;DHT22;27177;22.262;114.192;2023-06-14T21:05:07;25.60;99.90
41435;DHT22;27177;22.262;114.192;2023-06-14T21:07:34;25.50;99.90
41435;DHT22;27177;22.262;114.192;2023-06-14T21:10:01;25.50;99.90
41435;DHT22;27177;22.262;114.192;2023-06-14T21:12:28;25.50;99.90
41435;DHT22;27177;22.262;114.192;2023-06-14T21:14:54;25.50;99.90
41435;DHT22;27177;22.262;114.192;2023-06-14T21:17:21;25.40;99.90
41435;DHT22;27177;22.262;114.192;2023-06-14T21:19:48;25.30;99.90
41435;DHT22;27177;22.262;114.192;2023-06-14T21:22:15;25.30;99.90
41435;DHT22;27177;22.262;114.192;2023-06-14T21:24:45;25.30;99.90
41435;DHT22;27177;22.262;114.192;2023-06-14T21:27:12;25.30;99.90
41435;DHT22;27177;22.262;114.192;2023-06-14T21:29:38;25.30;99.90
41435;DHT22;27177;22.262;114.192;2023-06-14T21:32:08;25.30;99.90
41435;DHT22;27177;22.262;114.192;2023-06-14T21:34:36;25.30;99.90
41435;DHT22;27177;22.262;114.192;2023-06-14T21:37:09;25.30;99.90
41435;DHT22;27177;22.262;114.192;2023-06-14T21:39:37;25.30;99.90
41435;DHT22;27177;22.262;114.192;2023-06-14T21:42:08;25.30;99.90
41435;DHT22;27177;22.262;114.192;2023-06-14T21:44:44;25.30;99.90
41435;DHT22;27177;22.262;114.192;2023-06-14T21:47:15;25.30;99.90
41435;DHT22;27177;22.262;114.192;2023-06-14T21:49:45;25.20;99.90
41435;DHT22;27177;22.262;114.192;2023-06-14T21:52:12;25.20;99.90
41435;DHT22;27177;22.262;114.192;2023-06-14T21:54:43;25.20;99.90
41435;DHT22;27177;22.262;114.192;2023-06-14T21:57:10;25.30;99.90
41435;DHT22;27177;22.262;114.192;2023-06-14T21:59:37;25.30;99.90
41435;DHT22;27177;22.262;114.192;2023-06-14T22:02:04;25.30;99.90
41435;DHT22;27177;22.262;114.192;2023-06-14T22:04:30;25.20;99.90
41435;DHT22;27177;22.262;114.192;2023-06-14T22:06:57;25.20;99.90
41435;DHT22;27177;22.262;114.192;2023-06-14T22:09:24;25.30;99.90
41435;DHT22;27177;22.262;114.192;2023-06-14T22:11:51;25.30;99.90
41435;DHT22;27177;22.262;114.192;2023-06-14T22:14:18;25.30;99.90
41435;DHT22;27177;22.262;114.192;2023-06-14T22:16:47;25.30;99.90
41435;DHT22;27177;22.262;114.192;2023-06-14T22:19:17;25.20;99.90
41435;DHT22;27177;22.262;114.192;2023-06-14T22:21:44;25.20;99.90
41435;DHT22;27177;22.262;114.192;2023-06-14T22:24:16;25.20;99.90
41435;DHT22;27177;22.262;114.192;2023-06-14T22:26:44;25.20;99.90
41435;DHT22;27177;22.262;114.192;2023-06-14T22:29:15;25.30;99.90
41435;DHT22;27177;22.262;114.192;2023-06-14T22:31:43;25.30;99.90
41435;DHT22;27177;22.262;114.192;2023-06-14T22:34:10;25.30;99.90
41435;DHT22;27177;22.262;114.192;2023-06-14T22:36:37;25.30;99.90
41435;DHT22;27177;22.262;114.192;2023-06-14T22:39:04;25.30;99.90
41435;DHT22;27177;22.262;114.192;2023-06-14T22:41:31;25.30;99.90
41435;DHT22;27177;22.262;114.192;2023-06-14T22:43:58;25.30;99.90
41435;DHT22;27177;22.262;114.192;2023-06-14T22:46:25;25.20;99.90
41435;DHT22;27177;22.262;114.192;2023-06-14T22:48:53;25.30;99.90
41435;DHT22;27177;22.262;114.192;2023-06-14T22:51:21;25.20;99.90
41435;DHT22;27177;22.262;114.192;2023-06-14T22:53:49;25.20;99.90
41435;DHT22;27177;22.262;114.192;2023-06-14T22:56:18;25.30;99.90
41435;DHT22;27177;22.262;114.192;2023-06-14T22:58:46;25.30;99.90
41435;DHT22;27177;22.262;114.192;2023-06-14T23:01:14;25.30;99.90
41435;DHT22;27177;22.262;114.192;2023-06-14T23:03:46;25.30;99.90
41435;DHT22;27177;22.262;114.192;2023-06-14T23:06:17;25.30;99.90
41435;DHT22;27177;22.262;114.192;2023-06-14T23:08:54;25.20;99.90
41435;DHT22;27177;22.262;114.192;2023-06-14T23:11:22;25.30;99.90
41435;DHT22;27177;22.262;114.192;2023-06-14T23:13:50;25.30;99.90
41435;DHT22;27177;22.262;114.192;2023-06-14T23:16:19;25.30;99.90
41435;DHT22;27177;22.262;114.192;2023-06-14T23:18:46;25.40;99.90
41435;DHT22;27177;22.262;114.192;2023-06-14T23:21:14;25.40;99.90
41435;DHT22;27177;22.262;114.192;2023-06-14T23:23:46;25.40;99.90
41435;DHT22;27177;22.262;114.192;2023-06-14T23:26:20;25.40;99.90
41435;DHT22;27177;22.262;114.192;2023-06-14T23:28:51;25.40;99.90
41435;DHT22;27177;22.262;114.192;2023-06-14T23:31:20;25.50;99.90
41435;DHT22;27177;22.262;114.192;2023-06-14T23:33:48;25.50;99.90
41435;DHT22;27177;22.262;114.192;2023-06-14T23:36:15;25.50;99.90
41435;DHT22;27177;22.262;114.192;2023-06-14T23:38:42;25.50;99.90